84VA weather

Cia Headquarters Heliport
Langley, Virginia, United States

Public forecast

Using degrees Fahrenheit for public forecast. Weather courtesy of forecast.io.

Closest aviation weather report (METAR) to Cia Headquarters Heliport

Closest report is Ronald Reagan Washington National Airport, 8.1 nm (15.0 km) SE. Retrieved 2020/07/07 03:17 UTC (15 minutes ago):

KDCA 070317Z 11019G31KT 10SM VCTS FEW028 OVC037 24/21 A3007 RMK AO2 PK WND 10031/0310 WSHFT 0302 LTG DSNT E-S TSE0253B0254E08 FRQ LTGICCC DSNT NE-S CB DSNT NE-S MOV SE T02390206

Closest aviation forecast (TAF) to Cia Headquarters Heliport

Closest forecast is Ronald Reagan Washington National Airport, 8.1 nm (15.0 km) SE. Retrieved 2020-07-07 00:42 UTC (3 hours ago):

TAF KDCA 062341Z 0700/0806 01010KT P6SM VCTS BKN050CB BKN110 FM070200 08006KT P6SM SCT040 OVC070 FM070500 17004KT P6SM FEW050 SCT100 FM071000 16004KT P6SM BKN025 FM071600 18006KT P6SM SCT050 SCT250 FM072300 15007KT P6SM SCT060